BOW weather

Bartow Executive Airport
Bartow, Florida, United States

Public forecast

Using degrees Fahrenheit for public forecast. Weather courtesy of forecast.io.

Current aviation weather report (METAR) for Bartow Executive Airport

Retrieved 2019/10/16 06:35 UTC (0 seconds ago):

KBOW 160635Z AUTO 00000KT 10SM 22/20 A2996 RMK AO2

Closest aviation forecast (TAF) to Bartow Executive Airport

Closest forecast is Lakeland Linder International Airport, 12.8 nm (23.6 km) WNW. Retrieved 2019/10/16 06:42 UTC (0 seconds ago):

TAF KLAL 160539Z 1606/1706 VRB03KT P6SM FEW050 BKN250 FM161100 VRB03KT P6SM SCT020 BKN250 FM161600 25012G18KT P6SM VCSH SCT030 BKN250 FM170200 26005KT P6SM SCT030 BKN250 AMD NOT SKED TIL 161100